首页
METAR-TAF:

METAR-TAF

机场 :

安徒生, 南卡罗来纳州, 美国

纬度: 34-29-52N, 经度: 082-42-35W, 海拔: 238米

当前天气观测

该预报发布于40分钟前的15:05 UTC
风速10节,风向西,有时为15节阵风
温度 25°C
湿度 79%
气压 1016 hPa
能見度: 16.1公里
多云层高于1500英尺
阴天层高于2200英尺

METAR: KAND 051505Z AUTO 27010G15KT 10SM BKN015 OVC022 25/21 A3000 RMK AO2 T02500206

时间: 11:45 (15:45 UTC)

预报

该预报发布于1小时和40分钟前的14:05 UTC
预报有效从05日的 14点(UTC)到 06日的 12点(UTC)
风速5节,风向南转西南
能見度: 10公里
多云层高于800英尺
从 05日的 1500点(UTC)
风速5节,风向南转西南
能見度: 10公里
多云层高于1500英尺
从 05日的 1700点(UTC)
风速8节,风向西南
能見度: 10公里
多云层高于3500英尺, 积雨云.
附近有雷暴
短暂存在
从 05日的 20点(UTC)到 05日的 24点(UTC)
能見度: 6.4公里
阴天层高于2500英尺, 积雨云.
雷暴, 雨, 轻雾
从 06日的 0000点(UTC)
风速3节,风向西
能見度: 10公里
散云层高于4000英尺

TAF: KAND 051405Z 0514/0612 20005KT P6SM BKN008 FM051500 21005KT P6SM BKN015 FM051700 23008KT P6SM VCTS BKN035CB TEMPO 0520/0524 4SM TSRA BR OVC025CB FM060000 26003KT P6SM SCT040

超过4000个机场的气象观测和天气预报(METAR&TAF报告)。

可查询的气象台以黄色和红色小点在地图上表示。

将鼠标移到小点上方,可查看气象台名称。

然后点击查看天气观测和预报。

如需切换地图:点击带黑十字的绿色按钮放大地图;点击带横线的绿色按钮缩小地图;或者点击绿色箭头查看邻近地区的地图。


METAR-TAF: